Time;durP1;ratioP1;P1;durP2;ratioP2;P2;SDS_P1;SDS_P2;PMS_P1;PMS_P2;Temp;Humidity;BMP_temperature;BMP_pressure;BME280_temperature;BME280_humidity;BME280_pressure;Samples;Min_cycle;Max_cycle;Signal;HPM_P1;HPM_P2
2021/01/11 00:00:11;;;;;;;61.77;26.50;;;;;;;-2.25;97.40;100041.27;1756023;81;20964;-72
2021/01/11 00:02:38;;;;;;;58.73;25.57;;;;;;;-2.22;97.28;100046.73;1755590;81;20949;-72
2021/01/11 00:05:10;;;;;;;59.33;26.50;;;;;;;-2.19;97.34;100044.42;1755605;81;21056;-72
2021/01/11 00:07:40;;;;;;;55.48;23.35;;;;;;;-2.15;97.34;100044.80;1755798;81;20942;-72
2021/01/11 00:10:11;;;;;;;51.33;24.77;;;;;;;-2.12;97.32;100035.77;1756062;81;21366;-72
2021/01/11 00:12:43;;;;;;;62.70;25.88;;;;;;;-2.11;97.24;100031.21;1755665;81;21067;-73
2021/01/11 00:15:15;;;;;;;62.75;25.90;;;;;;;-2.12;97.30;100022.31;1755800;81;21001;-73
2021/01/11 00:17:43;;;;;;;58.05;23.45;;;;;;;-2.09;97.54;100031.81;1755687;81;20910;-73
2021/01/11 00:20:14;;;;;;;69.80;28.62;;;;;;;-2.05;97.66;100033.02;1755884;81;21579;-73
2021/01/11 00:22:43;;;;;;;58.75;25.20;;;;;;;-2.04;97.56;100042.21;1755718;81;21370;-72
2021/01/11 00:25:12;;;;;;;65.35;26.00;;;;;;;-2.04;97.36;100048.94;1755801;81;21598;-73
2021/01/11 00:27:41;;;;;;;60.23;25.88;;;;;;;-2.06;97.21;100043.48;1755545;80;21028;-73
2021/01/11 00:30:12;;;;;;;57.03;22.55;;;;;;;-2.06;97.17;100039.44;1753370;81;21562;-73
2021/01/11 00:32:40;;;;;;;59.88;26.33;;;;;;;-2.08;97.06;100049.08;1755923;81;21016;-72
2021/01/11 00:35:10;;;;;;;57.05;25.10;;;;;;;-2.11;96.90;100056.77;1755821;81;21412;-72
2021/01/11 00:37:37;;;;;;;59.70;26.15;;;;;;;-2.12;96.89;100063.19;1755835;81;21495;-72
2021/01/11 00:40:07;;;;;;;48.28;21.82;;;;;;;-2.13;96.97;100059.67;1755844;81;21009;-72
2021/01/11 00:42:35;;;;;;;53.75;22.62;;;;;;;-2.09;97.06;100062.75;1754754;81;21119;-72
2021/01/11 00:45:06;;;;;;;46.35;22.90;;;;;;;-2.09;97.21;100054.16;1751815;82;21064;-72
2021/01/11 00:47:40;;;;;;;56.23;24.23;;;;;;;-2.11;97.11;100049.52;1751933;82;22276;-71
2021/01/11 00:50:10;;;;;;;55.75;23.92;;;;;;;-2.14;97.00;100028.96;1759744;81;21476;-71
2021/01/11 00:52:38;;;;;;;50.90;23.90;;;;;;;-2.15;97.03;100021.94;1759636;81;21464;-71
2021/01/11 00:55:09;;;;;;;47.20;21.62;;;;;;;-2.17;96.91;100012.74;1759626;81;20981;-72
2021/01/11 00:57:39;;;;;;;47.47;21.20;;;;;;;-2.22;96.74;100009.07;1734126;81;21056;-73
2021/01/11 01:00:10;;;;;;;44.18;20.23;;;;;;;-2.26;96.57;100022.14;1734370;81;21371;-73
2021/01/11 01:02:49;;;;;;;43.15;18.40;;;;;;;-2.28;96.43;100022.88;1819887;76;22817;-70
2021/01/11 01:05:18;;;;;;;38.20;17.02;;;;;;;-2.36;96.31;100032.08;1783180;80;20918;-69
2021/01/11 01:07:46;;;;;;;37.08;15.95;;;;;;;-2.38;96.29;100041.41;1783239;80;21367;-70
2021/01/11 01:10:14;;;;;;;35.55;15.58;;;;;;;-2.40;96.28;100036.77;1782965;80;20986;-71
2021/01/11 01:12:42;;;;;;;31.85;14.18;;;;;;;-2.42;96.26;100032.95;1783160;79;21057;-72
2021/01/11 01:15:11;;;;;;;34.20;16.02;;;;;;;-2.42;96.29;100044.23;1782569;80;21548;-72
2021/01/11 01:17:40;;;;;;;36.13;17.27;;;;;;;-2.41;96.30;100048.56;1783123;80;21025;-73
2021/01/11 01:20:16;;;;;;;33.80;14.98;;;;;;;-2.40;96.27;100051.55;1783201;80;21368;-71
2021/01/11 01:22:48;;;;;;;38.92;17.55;;;;;;;-2.40;96.28;100046.17;1783129;80;21013;-71
2021/01/11 01:25:16;;;;;;;39.53;18.23;;;;;;;-2.42;96.15;100043.70;1783356;79;20963;-70
2021/01/11 01:27:44;;;;;;;44.25;18.62;;;;;;;-2.41;96.26;100036.46;1758329;80;21021;-69
2021/01/11 01:30:13;;;;;;;37.88;17.48;;;;;;;-2.40;96.28;100038.11;1752108;81;21563;-70
2021/01/11 01:32:42;;;;;;;49.27;21.20;;;;;;;-2.43;96.01;100048.78;1752158;82;21454;-69
2021/01/11 01:35:11;;;;;;;47.33;20.55;;;;;;;-2.47;95.90;100052.12;1752038;82;21389;-68
2021/01/11 01:37:39;;;;;;;42.08;19.30;;;;;;;-2.45;96.03;100058.11;1780089;78;20920;-69
2021/01/11 01:40:08;;;;;;;44.90;20.95;;;;;;;-2.43;95.99;100060.06;1808438;79;20944;-70
2021/01/11 01:42:36;;;;;;;41.73;19.60;;;;;;;-2.44;95.89;100060.58;1808448;78;20924;-69
2021/01/11 01:45:06;;;;;;;42.73;19.50;;;;;;;-2.44;95.84;100057.06;1808636;79;21375;-68
2021/01/11 01:47:34;;;;;;;42.15;19.35;;;;;;;-2.42;95.95;100059.02;1808650;79;21581;-68
2021/01/11 01:50:07;;;;;;;42.78;18.75;;;;;;;-2.43;95.94;100057.37;1779848;79;20971;-69
2021/01/11 01:52:36;;;;;;;41.58;17.45;;;;;;;-2.42;95.95;100063.05;1808621;78;21098;-68
2021/01/11 01:55:11;;;;;;;30.02;13.53;;;;;;;-2.42;95.93;100071.94;1808604;79;21003;-69
2021/01/11 01:57:40;;;;;;;28.27;14.15;;;;;;;-2.41;95.92;100066.86;1808822;79;21196;-68
2021/01/11 02:00:11;;;;;;;34.48;15.10;;;;;;;-2.40;95.89;100063.66;1808580;79;20944;-68
2021/01/11 02:02:42;;;;;;;33.73;15.00;;;;;;;-2.39;95.89;100066.64;1808461;79;21098;-69
2021/01/11 02:05:10;;;;;;;27.13;13.90;;;;;;;-2.37;95.91;100056.49;1808573;79;20884;-69
2021/01/11 02:07:52;;;;;;;30.17;13.28;;;;;;;-2.36;95.89;100058.14;1808684;79;21466;-69
2021/01/11 02:10:45;;;;;;;30.20;14.05;;;;;;;-2.35;95.87;100047.16;1808739;79;21357;-68
2021/01/11 02:13:39;;;;;;;28.67;14.15;;;;;;;-2.34;95.72;100047.47;1808196;79;20995;-69
2021/01/11 02:16:27;;;;;;;30.68;15.13;;;;;;;-2.36;95.59;100045.52;1779011;79;21495;-71
2021/01/11 02:19:18;;;;;;;33.38;14.05;;;;;;;-2.37;95.51;100033.64;1776999;79;20940;-71
2021/01/11 02:22:03;;;;;;;29.20;14.13;;;;;;;-2.35;95.57;100030.20;1808026;79;20885;-71
2021/01/11 02:24:53;;;;;;;29.27;14.10;;;;;;;-2.34;95.62;100021.09;1779045;79;22094;-71
2021/01/11 02:27:48;;;;;;;35.65;17.30;;;;;;;-2.31;95.71;100011.77;1807932;79;21169;-72
2021/01/11 02:30:32;;;;;;;33.33;15.85;;;;;;;-2.30;95.62;100002.63;1808014;79;20941;-72
2021/01/11 02:33:09;;;;;;;28.65;13.55;;;;;;;-2.30;95.60;99991.87;1808034;79;21004;-70
2021/01/11 02:36:00;;;;;;;29.02;14.80;;;;;;;-2.31;95.58;99994.29;1808059;79;21075;-69
2021/01/11 02:38:27;;;;;;;30.50;14.10;;;;;;;-2.32;95.45;100002.05;1808032;79;21428;-69
2021/01/11 02:40:55;;;;;;;28.38;14.30;;;;;;;-2.37;95.36;100000.85;1807842;79;20944;-69
2021/01/11 02:43:24;;;;;;;32.08;13.65;;;;;;;-2.36;95.38;100005.70;1807968;79;20968;-69
2021/01/11 02:45:51;;;;;;;22.27;10.55;;;;;;;-2.36;95.37;99999.80;1807954;79;21016;-69
2021/01/11 02:48:29;;;;;;;25.48;12.35;;;;;;;-2.34;95.31;100008.48;1807988;79;20916;-69
2021/01/11 02:51:08;;;;;;;24.20;12.33;;;;;;;-2.34;95.24;100017.06;1808016;79;21436;-69
2021/01/11 02:54:01;;;;;;;25.08;12.03;;;;;;;-2.32;95.16;100028.95;1807898;79;21090;-69
2021/01/11 02:56:38;;;;;;;30.68;14.60;;;;;;;-2.31;95.12;100030.59;1808027;79;20936;-69
2021/01/11 02:59:31;;;;;;;29.07;14.23;;;;;;;-2.31;95.04;100035.42;1802146;78;21051;-69
2021/01/11 03:02:12;;;;;;;27.50;12.03;;;;;;;-2.31;94.98;100042.14;1807776;79;21447;-70
2021/01/11 03:04:40;;;;;;;28.50;13.68;;;;;;;-2.29;94.98;100033.85;1808025;79;21259;-69
2021/01/11 03:07:09;;;;;;;26.75;13.45;;;;;;;-2.27;94.95;100033.94;1779135;79;20924;-69
2021/01/11 03:09:39;;;;;;;35.43;15.35;;;;;;;-2.24;94.95;100032.16;1807969;79;20916;-69
2021/01/11 03:12:08;;;;;;;41.33;18.52;;;;;;;-2.23;94.85;100030.28;1808061;79;20909;-69
2021/01/11 03:14:36;;;;;;;33.25;16.37;;;;;;;-2.23;94.71;100033.80;1808083;79;20952;-68
2021/01/11 03:17:03;;;;;;;38.58;17.73;;;;;;;-2.22;94.71;100031.41;1807971;79;21320;-69
2021/01/11 03:19:31;;;;;;;36.20;18.45;;;;;;;-2.20;94.65;100025.81;1807871;79;21047;-69
2021/01/11 03:21:59;;;;;;;37.15;17.20;;;;;;;-2.20;94.68;100025.29;1807913;79;20928;-69
2021/01/11 03:24:27;;;;;;;32.00;16.07;;;;;;;-2.18;94.66;100027.23;1808011;79;21494;-69
2021/01/11 03:26:59;;;;;;;29.65;14.60;;;;;;;-2.18;94.59;100033.14;1807934;79;21497;-69
2021/01/11 03:29:27;;;;;;;35.93;17.87;;;;;;;-2.18;94.51;100031.27;1808259;79;21191;-69
2021/01/11 03:31:55;;;;;;;34.35;16.30;;;;;;;-2.17;94.46;100039.64;1807917;79;21019;-69
2021/01/11 03:34:24;;;;;;;26.42;12.85;;;;;;;-2.17;94.39;100038.30;1807945;79;21016;-69
2021/01/11 03:36:52;;;;;;;26.50;12.50;;;;;;;-2.18;94.26;100046.58;1807921;79;21601;-69
2021/01/11 03:39:19;;;;;;;27.90;12.98;;;;;;;-2.19;94.25;100043.07;1807909;79;20916;-69
2021/01/11 03:41:47;;;;;;;33.33;14.53;;;;;;;-2.20;94.25;100043.30;1807925;79;21373;-69
2021/01/11 03:44:15;;;;;;;26.60;12.75;;;;;;;-2.20;94.25;100046.80;1807876;79;21910;-69
2021/01/11 03:46:43;;;;;;;23.07;11.12;;;;;;;-2.18;94.21;100054.66;1807920;79;20932;-69
2021/01/11 03:49:11;;;;;;;25.08;11.53;;;;;;;-2.18;94.13;100056.83;1807910;79;20983;-69
2021/01/11 03:51:38;;;;;;;27.02;13.10;;;;;;;-2.17;94.15;100061.16;1807941;79;20916;-69
2021/01/11 03:54:06;;;;;;;22.75;11.10;;;;;;;-2.15;94.07;100064.98;1807897;79;20995;-69
2021/01/11 03:56:33;;;;;;;22.95;11.57;;;;;;;-2.16;93.79;100053.39;1807306;78;21605;-69
2021/01/11 03:59:02;;;;;;;19.50;9.93;;;;;;;-2.16;93.60;100061.46;1807865;79;20980;-70
2021/01/11 04:01:36;;;;;;;21.20;9.98;;;;;;;-2.16;93.49;100059.30;1808095;79;20932;-70
2021/01/11 04:04:04;;;;;;;22.05;9.95;;;;;;;-2.19;93.39;100061.90;1816538;79;20971;-70
2021/01/11 04:06:32;;;;;;;25.12;11.28;;;;;;;-2.19;93.36;100061.90;1816432;79;21425;-70
2021/01/11 04:09:00;;;;;;;37.23;15.45;;;;;;;-2.19;93.23;100063.25;1816422;79;20927;-69
2021/01/11 04:11:28;;;;;;;45.73;14.35;;;;;;;-2.20;93.12;100064.81;1816483;79;20927;-69
2021/01/11 04:13:56;;;;;;;36.23;15.03;;;;;;;-2.20;93.03;100071.02;1816541;79;21479;-70
2021/01/11 04:16:24;;;;;;;30.02;13.45;;;;;;;-2.20;93.01;100066.16;1816489;79;20979;-69
2021/01/11 04:18:52;;;;;;;24.27;11.12;;;;;;;-2.22;93.00;100065.03;1816440;79;21178;-69
2021/01/11 04:21:20;;;;;;;18.92;10.72;;;;;;;-2.22;92.95;100062.34;1816359;79;21852;-69
2021/01/11 04:23:48;;;;;;;16.67;8.85;;;;;;;-2.23;92.93;100061.22;1816519;79;21466;-69
2021/01/11 04:26:15;;;;;;;16.80;8.88;;;;;;;-2.24;92.95;100063.08;1816470;79;21826;-69
2021/01/11 04:28:43;;;;;;;16.52;9.63;;;;;;;-2.25;92.97;100062.78;1816506;79;20979;-69
2021/01/11 04:31:12;;;;;;;20.70;9.85;;;;;;;-2.26;92.95;100067.86;1816480;79;21362;-69
2021/01/11 04:33:40;;;;;;;20.05;9.78;;;;;;;-2.28;92.97;100061.88;1816476;79;21491;-69
2021/01/11 04:36:08;;;;;;;16.07;9.03;;;;;;;-2.27;93.10;100058.14;1816430;79;20928;-68
2021/01/11 04:38:36;;;;;;;20.12;8.85;;;;;;;-2.26;93.18;100054.41;1816425;79;20940;-70
2021/01/11 04:41:04;;;;;;;14.55;8.48;;;;;;;-2.26;93.15;100047.69;1816397;79;20983;-72
2021/01/11 04:43:35;;;;;;;14.70;8.48;;;;;;;-2.27;93.21;100054.11;1816454;79;21749;-74
2021/01/11 04:46:03;;;;;;;19.35;8.80;;;;;;;-2.28;93.29;100049.77;1816603;79;21542;-73
2021/01/11 04:48:31;;;;;;;15.88;8.58;;;;;;;-2.29;93.30;100045.44;1816449;79;21045;-72
2021/01/11 04:51:01;;;;;;;15.28;8.40;;;;;;;-2.30;93.28;100047.82;1816407;79;20924;-73
2021/01/11 04:53:28;;;;;;;21.52;9.75;;;;;;;-2.30;93.37;100047.82;1792117;79;20932;-71
2021/01/11 04:55:58;;;;;;;16.77;9.55;;;;;;;-2.29;93.39;100048.64;1778686;79;21370;-72
2021/01/11 04:58:25;;;;;;;20.37;10.45;;;;;;;-2.30;93.39;100049.69;1816346;79;20999;-75
2021/01/11 05:00:53;;;;;;;18.15;9.58;;;;;;;-2.31;93.44;100054.80;1816478;79;21102;-71
2021/01/11 05:03:21;;;;;;;18.12;9.33;;;;;;;-2.31;93.50;100047.52;1741369;79;21196;-71
2021/01/11 05:05:48;;;;;;;17.12;9.35;;;;;;;-2.30;93.59;100048.34;1759109;79;20928;-71
2021/01/11 05:08:16;;;;;;;16.10;9.08;;;;;;;-2.27;93.62;100049.25;1758841;79;21380;-72
2021/01/11 05:10:44;;;;;;;17.40;9.70;;;;;;;-2.25;93.69;100046.64;1807849;79;20999;-70
2021/01/11 05:13:12;;;;;;;20.17;10.10;;;;;;;-2.23;93.68;100043.21;1807853;78;21007;-71
2021/01/11 05:15:41;;;;;;;20.43;10.75;;;;;;;-2.20;93.82;100047.33;1807967;79;21031;-91
2021/01/11 05:18:19;;;;;;;20.40;9.83;;;;;;;-2.18;93.84;100047.41;1807959;79;20932;-72
2021/01/11 05:20:47;;;;;;;15.45;8.15;;;;;;;-2.17;93.75;100053.61;1807908;79;21249;-71
2021/01/11 05:23:16;;;;;;;17.82;9.65;;;;;;;-2.18;93.77;100053.31;1807763;78;20941;-74
2021/01/11 05:25:45;;;;;;;24.05;10.82;;;;;;;-2.17;93.78;100057.13;1807283;78;21550;-71
2021/01/11 05:28:18;;;;;;;18.95;10.23;;;;;;;-2.17;93.71;100062.50;1807789;79;21533;-71
2021/01/11 05:30:49;;;;;;;18.92;9.88;;;;;;;-2.17;93.63;100067.88;1807852;79;20920;-72
2021/01/11 05:33:22;;;;;;;19.27;11.20;;;;;;;-2.18;93.67;100062.72;1807848;79;21364;-72
2021/01/11 05:36:13;;;;;;;17.23;9.43;;;;;;;-2.18;93.68;100055.48;1807937;79;21487;-72
2021/01/11 05:41:23;;;;;;;21.55;9.48;;;;;;;-2.16;93.58;100064.15;1873689;75;22863;-69
2021/01/11 05:44:15;;;;;;;20.97;9.33;;;;;;;-2.19;93.56;100065.11;1841690;78;20920;-69
2021/01/11 05:46:45;;;;;;;20.40;10.20;;;;;;;-2.20;93.56;100061.59;1760729;81;21194;-74
2021/01/11 05:49:14;;;;;;;19.48;9.88;;;;;;;-2.19;93.58;100059.73;1732882;81;21048;-77
2021/01/11 05:51:41;;;;;;;21.35;11.43;;;;;;;-2.20;93.48;100062.95;1790946;78;21474;-70
2021/01/11 05:54:26;;;;;;;20.37;10.23;;;;;;;-2.20;93.60;100066.98;1835917;78;20920;-71
2021/01/11 05:56:57;;;;;;;19.75;9.65;;;;;;;-2.15;93.83;100068.48;1812120;77;21538;-66
2021/01/11 05:59:25;;;;;;;17.57;9.28;;;;;;;-2.09;93.97;100070.82;1841473;78;22275;-72
2021/01/11 06:02:00;;;;;;;19.67;10.00;;;;;;;-2.06;93.95;100073.89;1821153;78;21015;-68
2021/01/11 06:04:28;;;;;;;21.35;9.38;;;;;;;-2.04;93.75;100069.64;1808540;78;20975;-68
2021/01/11 06:06:56;;;;;;;16.35;9.10;;;;;;;-2.06;93.65;100071.72;1779942;79;21118;-72
2021/01/11 06:09:24;;;;;;;20.75;9.25;;;;;;;-2.07;93.57;100078.97;1814458;76;20932;-74
2021/01/11 06:11:52;;;;;;;16.80;7.95;;;;;;;-2.08;93.65;100080.02;1791901;79;21355;-78
2021/01/11 06:14:20;;;;;;;15.08;7.40;;;;;;;-2.07;93.58;100086.22;1808596;79;20955;-80
2021/01/11 06:16:48;;;;;;;13.30;7.33;;;;;;;-2.09;93.38;100089.66;1808493;79;20920;-75
2021/01/11 06:19:16;;;;;;;23.35;9.35;;;;;;;-2.13;93.32;100085.75;1808507;79;21007;-76
2021/01/11 06:21:50;;;;;;;27.82;12.13;;;;;;;-2.17;93.30;100083.20;1808530;79;21138;-76
2021/01/11 06:24:18;;;;;;;32.98;13.65;;;;;;;-2.19;93.31;100087.45;1808618;78;21114;-77
2021/01/11 06:26:46;;;;;;;35.23;15.40;;;;;;;-2.22;93.41;100086.55;1802737;79;21578;-73
2021/01/11 06:29:33;;;;;;;28.00;14.15;;;;;;;-2.23;93.49;100082.21;1792507;80;20988;-73
2021/01/11 06:32:21;;;;;;;23.42;11.40;;;;;;;-2.21;93.60;100079.30;1792468;80;20881;-72
2021/01/11 06:34:49;;;;;;;23.32;11.20;;;;;;;-2.20;93.71;100075.56;1792560;80;20933;-75
2021/01/11 06:37:22;;;;;;;19.62;10.25;;;;;;;-2.18;93.81;100078.86;1792514;79;21185;-76
2021/01/11 06:39:49;;;;;;;;;;;;;;;-2.18;93.78;100087.75;1795649;79;20905;-74
2021/01/11 06:42:18;;;;;;;27.35;12.55;;;;;;;-2.17;93.76;100086.72;1795323;80;20144;-83
2021/01/11 06:44:48;;;;;;;23.47;12.15;;;;;;;-2.17;93.87;100086.72;1795239;80;20996;-79
2021/01/11 06:47:30;;;;;;;31.17;12.60;;;;;;;-2.15;93.93;100080.59;1795561;80;20921;-72
2021/01/11 06:50:08;;;;;;;25.90;12.23;;;;;;;-2.14;93.96;100082.23;1795412;77;21366;-71
2021/01/11 06:52:37;;;;;;;31.65;15.93;;;;;;;-2.13;93.92;100084.41;1806550;77;21538;-73
2021/01/11 06:55:14;;;;;;;28.80;14.05;;;;;;;-2.13;93.94;100082.55;1809165;78;20989;-70
2021/01/11 06:57:46;;;;;;;25.90;15.00;;;;;;;-2.14;93.72;100079.55;1794742;80;21521;-73
2021/01/11 07:00:19;;;;;;;34.58;19.23;;;;;;;-2.13;93.80;100073.12;1794814;80;20976;-74
2021/01/11 07:02:46;;;;;;;31.75;15.88;;;;;;;-2.13;93.79;100075.81;1794717;80;21297;-74
2021/01/11 07:05:36;;;;;;;24.07;11.75;;;;;;;-2.13;93.78;100072.30;1794614;80;21578;-83
2021/01/11 07:08:06;;;;;;;20.20;10.98;;;;;;;-2.13;93.74;100073.12;1794818;78;21059;-72
2021/01/11 07:10:40;;;;;;;21.12;10.68;;;;;;;-2.15;93.64;100070.36;1794517;80;20953;-72
2021/01/11 07:13:23;;;;;;;24.10;11.83;;;;;;;-2.17;93.63;100071.92;1794779;79;20996;-72
2021/01/11 07:15:57;;;;;;;27.70;11.93;;;;;;;-2.17;93.69;100075.13;1794760;79;21435;-72
2021/01/11 07:18:42;;;;;;;58.42;20.20;;;;;;;-2.19;93.69;100074.00;1794688;80;21020;-72
2021/01/11 07:21:19;;;;;;;75.32;28.02;;;;;;;-2.19;93.75;100079.38;1792859;80;20929;-72
2021/01/11 07:23:47;;;;;;;66.25;24.98;;;;;;;-2.20;93.81;100083.64;1794854;80;21523;-72
2021/01/11 07:26:21;;;;;;;52.15;23.02;;;;;;;-2.18;93.87;100077.52;1794711;78;20960;-71
2021/01/11 07:29:09;;;;;;;45.20;24.18;;;;;;;-2.16;93.94;100085.67;1794832;80;21199;-73
2021/01/11 07:31:44;;;;;;;33.48;17.37;;;;;;;-2.08;94.15;100088.09;1794532;78;21490;-74
2021/01/11 07:34:16;;;;;;;28.23;16.25;;;;;;;-1.97;94.29;100091.11;1813019;78;20909;-76
2021/01/11 07:36:53;;;;;;;26.05;15.45;;;;;;;-1.91;94.01;100094.26;1827023;78;21574;-76
2021/01/11 07:39:29;;;;;;;30.82;18.95;;;;;;;-1.91;93.49;100103.16;1827277;78;20921;-75
2021/01/11 07:42:05;;;;;;;40.38;26.55;;;;;;;-1.92;93.44;100096.12;1827314;77;22387;-79
2021/01/11 07:44:37;;;;;;;20.05;12.05;;;;;;;-1.90;93.21;100093.21;1827284;78;20918;-76
2021/01/11 07:47:13;;;;;;;23.18;11.18;;;;;;;-1.93;92.80;100097.69;1827230;78;20893;-75
2021/01/11 07:49:45;;;;;;;24.00;14.28;;;;;;;-1.94;92.80;100093.36;1827115;78;21083;-77
2021/01/11 07:52:15;;;;;;;24.63;13.83;;;;;;;-1.89;93.10;100098.90;1815865;77;20929;-79
2021/01/11 07:54:44;;;;;;;36.98;19.32;;;;;;;-1.84;92.99;100096.37;1813027;78;21355;-71
2021/01/11 07:57:13;;;;;;;25.85;12.63;;;;;;;-1.80;92.77;100104.30;1826764;78;20929;-70
2021/01/11 07:59:41;;;;;;;24.95;11.57;;;;;;;-1.78;92.61;100108.42;1825524;78;21478;-76
2021/01/11 08:02:12;;;;;;;25.50;11.40;;;;;;;-1.76;92.42;100110.37;1825446;78;20922;-73
2021/01/11 08:04:40;;;;;;;24.85;11.43;;;;;;;-1.77;91.93;100118.66;1825443;78;20934;-70
2021/01/11 08:07:12;;;;;;;28.52;13.00;;;;;;;-1.81;91.66;100120.15;1825448;78;21355;-70
2021/01/11 08:09:42;;;;;;;25.60;13.32;;;;;;;-1.80;91.70;100121.80;1825369;78;20930;-69
2021/01/11 08:12:15;;;;;;;28.75;14.55;;;;;;;-1.80;91.48;100116.41;1825398;78;20906;-73
2021/01/11 08:14:44;;;;;;;34.55;16.10;;;;;;;-1.84;91.42;100111.17;1816786;77;21016;-73
2021/01/11 08:17:21;;;;;;;32.40;16.12;;;;;;;-1.86;91.43;100114.08;1804502;78;21008;-71
2021/01/11 08:19:51;;;;;;;33.45;13.25;;;;;;;-1.83;91.80;100117.67;1793961;80;21208;-70
2021/01/11 08:22:20;;;;;;;30.72;12.98;;;;;;;-1.77;91.86;100115.97;1795240;77;20909;-73
2021/01/11 08:24:51;;;;;;;28.98;13.75;;;;;;;-1.76;91.71;100128.38;1809447;77;20953;-73
2021/01/11 08:27:27;;;;;;;31.52;14.20;;;;;;;-1.74;91.73;100124.95;1827443;78;20869;-73
2021/01/11 08:30:11;;;;;;;25.55;13.10;;;;;;;-1.70;91.72;100124.78;1815384;77;21024;-70
2021/01/11 08:32:40;;;;;;;25.50;12.88;;;;;;;-1.66;91.84;100124.11;1801060;78;22324;-72
2021/01/11 08:35:15;;;;;;;27.07;12.90;;;;;;;-1.63;91.72;100122.84;1794515;79;20968;-71
2021/01/11 08:37:43;;;;;;;25.32;12.25;;;;;;;-1.59;91.79;100124.05;1794758;80;21476;-70
2021/01/11 08:40:29;;;;;;;24.60;11.08;;;;;;;-1.57;91.77;100126.00;1794524;80;21730;-71
2021/01/11 08:43:13;;;;;;;27.48;13.22;;;;;;;-1.54;91.63;100127.42;1794780;79;20969;-72
2021/01/11 08:45:41;;;;;;;33.53;17.15;;;;;;;-1.54;91.48;100122.86;1794726;79;21468;-71
2021/01/11 08:48:15;;;;;;;31.60;15.58;;;;;;;-1.49;91.44;100128.92;1794612;80;20941;-72
2021/01/11 08:50:56;;;;;;;32.45;15.95;;;;;;;-1.49;91.27;100127.05;1806202;77;21554;-72
2021/01/11 08:53:37;;;;;;;24.37;13.05;;;;;;;-1.50;91.12;100124.06;1813510;78;21028;-70
2021/01/11 08:56:12;;;;;;;26.65;14.25;;;;;;;-1.49;90.87;100132.44;1827122;78;21012;-70
2021/01/11 08:58:48;;;;;;;30.80;15.32;;;;;;;-1.48;90.69;100129.23;1827205;78;21472;-72
2021/01/11 09:01:24;;;;;;;32.40;15.70;;;;;;;-1.48;90.62;100127.88;1827199;78;21472;-70
2021/01/11 09:03:55;;;;;;;30.05;14.07;;;;;;;-1.43;90.83;100128.86;1827174;78;21020;-71
2021/01/11 09:06:47;;;;;;;23.62;13.15;;;;;;;-1.37;90.78;100129.31;1827107;78;21008;-69
2021/01/11 09:09:16;;;;;;;25.85;13.58;;;;;;;-1.31;90.51;100126.25;1798069;78;21571;-70
2021/01/11 09:11:48;;;;;;;27.40;12.70;;;;;;;-1.32;90.18;100127.30;1827150;78;21195;-68
2021/01/11 09:14:17;;;;;;;32.85;16.23;;;;;;;-1.30;90.27;100114.42;1827257;78;20993;-69
2021/01/11 09:16:52;;;;;;;28.32;13.38;;;;;;;-1.26;90.18;100111.59;1827024;78;21512;-74
2021/01/11 09:19:20;;;;;;;25.40;12.90;;;;;;;-1.24;89.63;100118.09;1826956;78;21016;-73
2021/01/11 09:24:44;;;;;;;21.30;11.20;;;;;;;-1.10;89.75;100112.82;1812155;78;22792;-71
2021/01/11 09:27:11;;;;;;;26.82;13.58;;;;;;;-1.10;89.61;100108.78;1808380;78;21443;-74
2021/01/11 09:29:39;;;;;;;23.20;13.22;;;;;;;-1.04;89.47;100120.00;1824394;78;21435;-71
2021/01/11 09:32:07;;;;;;;25.05;12.37;;;;;;;-1.01;89.18;100111.47;1824345;78;21006;-69
2021/01/11 09:34:34;;;;;;;29.12;15.53;;;;;;;-1.02;88.96;100112.52;1824405;78;21039;-70
2021/01/11 09:37:01;;;;;;;27.45;12.37;;;;;;;-1.02;88.88;100112.52;1824391;78;20927;-70
2021/01/11 09:39:31;;;;;;;27.25;13.62;;;;;;;-0.99;88.77;100112.06;1824503;78;21081;-70
2021/01/11 09:41:58;;;;;;;25.52;13.75;;;;;;;-1.05;88.60;100116.48;1824347;78;21418;-75
2021/01/11 09:44:26;;;;;;;26.65;14.78;;;;;;;-1.05;88.68;100107.58;1824292;78;20947;-71
2021/01/11 09:46:55;;;;;;;29.42;14.80;;;;;;;-1.04;88.83;100111.39;1824369;78;21466;-69
2021/01/11 09:49:24;;;;;;;27.27;13.88;;;;;;;-1.04;88.67;100108.70;1823448;78;21557;-73
2021/01/11 09:51:52;;;;;;;23.02;11.45;;;;;;;-1.01;88.72;100109.59;1814755;78;20895;-78
2021/01/11 09:54:21;;;;;;;29.20;15.65;;;;;;;-1.01;88.38;100102.86;1812345;78;21376;-69
2021/01/11 09:56:48;;;;;;;26.12;13.10;;;;;;;-1.08;87.93;100101.30;1824419;78;20978;-70
2021/01/11 09:59:15;;;;;;;27.87;14.53;;;;;;;-1.11;88.02;100100.40;1824352;78;21030;-72
2021/01/11 10:01:46;;;;;;;30.57;14.93;;;;;;;-1.11;88.27;100096.36;1824356;78;21060;-72
2021/01/11 10:04:16;;;;;;;21.57;12.10;;;;;;;-1.09;88.33;100094.26;1824361;78;20883;-70
2021/01/11 10:06:46;;;;;;;24.92;13.68;;;;;;;-1.08;88.13;100086.47;1806903;78;21360;-69
2021/01/11 10:09:16;;;;;;;26.10;14.87;;;;;;;-1.11;88.16;100085.58;1803257;78;21124;-76
2021/01/11 10:11:50;;;;;;;31.33;15.68;;;;;;;-1.09;88.41;100088.88;1800215;78;21591;-69
2021/01/11 10:14:17;;;;;;;28.50;16.37;;;;;;;-1.05;88.44;100089.54;1812335;78;21568;-72
2021/01/11 10:16:45;;;;;;;36.73;18.27;;;;;;;-0.99;88.42;100086.47;1824478;78;20897;-76
2021/01/11 10:19:21;;;;;;;31.30;16.95;;;;;;;-0.97;88.26;100078.16;1824358;78;21325;-76
2021/01/11 10:21:48;;;;;;;30.37;16.52;;;;;;;-0.94;88.14;100083.09;1804399;78;20998;-75
2021/01/11 10:24:17;;;;;;;30.57;15.05;;;;;;;-0.91;88.14;100080.76;1800442;79;21587;-71
2021/01/11 10:26:47;;;;;;;40.30;18.45;;;;;;;-0.87;88.05;100075.73;1800276;79;21576;-72
2021/01/11 10:29:20;;;;;;;29.80;14.85;;;;;;;-0.84;88.06;100072.06;1809014;79;21081;-75
2021/01/11 10:31:47;;;;;;;30.23;15.03;;;;;;;-0.78;87.90;100078.41;1807468;79;22270;-71
2021/01/11 10:34:17;;;;;;;63.50;30.82;;;;;;;-0.74;87.80;100069.64;1805219;79;20955;-70
2021/01/11 10:36:47;;;;;;;42.17;21.33;;;;;;;-0.69;87.61;100067.61;1804881;79;20980;-73
2021/01/11 10:39:23;;;;;;;43.58;20.25;;;;;;;-0.66;87.39;100073.89;1804850;79;21022;-74
2021/01/11 10:41:53;;;;;;;59.30;27.70;;;;;;;-0.66;87.32;100071.19;1801312;79;21073;-78
2021/01/11 10:44:22;;;;;;;55.65;29.48;;;;;;;-0.67;87.27;100068.20;1787150;79;21416;-71
2021/01/11 10:46:51;;;;;;;36.23;18.92;;;;;;;-0.65;87.20;100071.48;1796008;79;20997;-77
2021/01/11 10:49:19;;;;;;;36.58;20.35;;;;;;;-0.63;86.90;100069.38;1811704;78;21018;-70
2021/01/11 10:51:48;;;;;;;44.77;24.95;;;;;;;-0.66;86.79;100075.23;1811811;79;21009;-75
2021/01/11 10:54:15;;;;;;;28.90;15.03;;;;;;;-0.68;86.93;100067.37;1804544;79;21551;-74
2021/01/11 10:56:43;;;;;;;33.25;16.37;;;;;;;-0.64;86.89;100072.31;1798335;79;21376;-74
2021/01/11 10:59:11;;;;;;;41.83;21.33;;;;;;;-0.67;86.85;100063.63;1804419;79;21059;-72
2021/01/11 11:01:38;;;;;;;36.35;19.30;;;;;;;-0.65;86.96;100067.97;1806234;79;20999;-77
2021/01/11 11:04:06;;;;;;;30.62;15.03;;;;;;;-0.61;87.12;100063.77;1812686;79;21043;-71
2021/01/11 11:06:34;;;;;;;29.25;16.00;;;;;;;-0.59;87.32;100061.66;1798751;79;21124;-72
2021/01/11 11:09:02;;;;;;;41.28;23.18;;;;;;;-0.56;87.17;100058.47;1796513;79;21420;-71
2021/01/11 11:11:30;;;;;;;46.90;22.62;;;;;;;-0.52;87.06;100067.74;1794836;79;21625;-74
2021/01/11 11:13:57;;;;;;;35.20;19.40;;;;;;;-0.49;86.88;100062.71;1785656;80;21253;-71
2021/01/11 11:16:25;;;;;;;36.42;20.35;;;;;;;-0.46;86.80;100061.43;1785599;80;20979;-73
2021/01/11 11:18:53;;;;;;;30.45;16.57;;;;;;;-0.44;86.82;100065.54;1788641;79;21163;-75
2021/01/11 11:21:20;;;;;;;30.12;15.13;;;;;;;-0.42;86.67;100063.43;1787934;79;21376;-75
2021/01/11 11:23:48;;;;;;;31.62;17.57;;;;;;;-0.42;86.35;100065.30;1756772;81;21017;-77
2021/01/11 11:26:20;;;;;;;32.53;18.65;;;;;;;-0.43;86.19;100061.78;1757525;81;21096;-85
2021/01/11 11:28:48;;;;;;;35.50;18.07;;;;;;;-0.42;86.24;100056.69;1772367;81;21108;-73
2021/01/11 11:31:16;;;;;;;40.52;18.60;;;;;;;-0.40;86.18;100057.28;1773260;80;21617;-72
2021/01/11 11:33:45;;;;;;;40.60;20.00;;;;;;;-0.40;86.14;100057.81;1766812;80;21370;-71
2021/01/11 11:36:12;;;;;;;37.00;19.40;;;;;;;-0.40;86.15;100060.50;1783802;80;21040;-75